Terminal Aerodrome Forecast
Issued by NWS

Home | Current Version | Previous Version | Text Only | Print | Product List | Glossary On
Versions: 1 2 3 4 5 6 7 8 9 10 11 12 13
000
FTAK31 PAJN 211100
TAFAWG
TAF
PAWG 211125Z 2112/2212 VRB03KT P6SM -SHRA FEW008 SCT025 BKN035
     FM211600 29006KT P6SM VCSH BKN050 BKN070
     FM220300 VRB04KT P6SM FEW005 FEW070
      AMD LTD TO CLD VIS AND WIND 2112/2115=

USA.gov is the U.S. government's official web portal to all federal, state and local government web resources and services.